createdAt,value
2018-02-14T00:00:01.442Z,48.30
2018-02-14T00:01:03.958Z,48.30
2018-02-14T00:02:06.445Z,48.50
2018-02-14T00:03:08.940Z,48.50
2018-02-14T00:04:11.449Z,48.60
2018-02-14T00:05:13.995Z,48.50
2018-02-14T00:06:16.489Z,48.40
2018-02-14T00:07:18.973Z,48.40
2018-02-14T00:08:21.471Z,48.80
2018-02-14T00:09:24.751Z,48.40
2018-02-14T00:10:27.242Z,48.40
2018-02-14T00:11:29.729Z,48.50
2018-02-14T00:12:32.262Z,48.40
2018-02-14T00:13:35.521Z,48.50
2018-02-14T00:14:38.421Z,48.50
2018-02-14T00:15:41.680Z,48.50
2018-02-14T00:16:44.186Z,48.50
2018-02-14T00:17:46.701Z,48.60
2018-02-14T00:18:49.193Z,48.50
2018-02-14T00:19:52.474Z,48.60
2018-02-14T00:20:55.743Z,48.70
2018-02-14T00:21:58.253Z,48.60
2018-02-14T00:23:00.769Z,48.90
2018-02-14T00:24:03.270Z,48.70
2018-02-14T00:25:06.134Z,48.70
2018-02-14T00:26:09.393Z,48.50
2018-02-14T00:27:11.886Z,48.50
2018-02-14T00:28:15.170Z,48.40
2018-02-14T00:29:17.664Z,48.40
2018-02-14T00:30:20.196Z,48.40
2018-02-14T00:31:23.446Z,48.30
2018-02-14T00:32:25.935Z,48.30
2018-02-14T00:33:29.185Z,48.50
2018-02-14T00:34:31.713Z,48.40
2018-02-14T00:35:34.225Z,48.60
2018-02-14T00:36:36.709Z,48.70
2018-02-14T00:37:39.971Z,49.00
2018-02-14T00:38:42.457Z,49.00
2018-02-14T00:39:45.721Z,49.10
2018-02-14T00:40:48.239Z,49.10
2018-02-14T00:41:50.730Z,49.20
2018-02-14T00:42:53.222Z,49.20
2018-02-14T00:43:55.729Z,49.30
2018-02-14T00:44:58.221Z,49.40
2018-02-14T00:46:00.741Z,49.50
2018-02-14T00:47:03.998Z,49.70
2018-02-14T00:48:06.485Z,49.70
2018-02-14T00:49:09.742Z,49.90
2018-02-14T00:50:12.242Z,49.90
2018-02-14T00:51:15.527Z,49.80
2018-02-14T00:52:18.774Z,49.80
2018-02-14T00:53:21.269Z,49.80
2018-02-14T00:54:24.528Z,49.90
2018-02-14T00:55:27.016Z,49.80
2018-02-14T00:56:30.293Z,49.80
2018-02-14T00:57:33.577Z,49.90
2018-02-14T00:58:36.835Z,50.00
2018-02-14T00:59:39.321Z,50.00
2018-02-14T01:00:42.609Z,50.20
2018-02-14T01:01:45.890Z,50.20
2018-02-14T01:02:49.157Z,50.30
2018-02-14T01:03:51.646Z,50.20
2018-02-14T01:04:54.906Z,50.40
2018-02-14T01:05:57.408Z,50.40
2018-02-14T01:06:59.933Z,50.50
2018-02-14T01:08:02.425Z,50.60
2018-02-14T01:09:05.693Z,50.50
2018-02-14T01:10:08.949Z,50.60
2018-02-14T01:11:11.438Z,50.60
2018-02-14T01:12:13.950Z,50.50
2018-02-14T01:13:16.441Z,50.50
2018-02-14T01:14:18.931Z,50.50
2018-02-14T01:15:21.421Z,50.70
2018-02-14T01:16:23.913Z,51.20
2018-02-14T01:17:26.433Z,50.70
2018-02-14T01:18:29.685Z,50.70
2018-02-14T01:19:37.238Z,50.70
2018-02-14T01:20:43.694Z,50.80
2018-02-14T01:21:50.122Z,50.90
2018-02-14T01:22:53.389Z,50.80
2018-02-14T01:23:56.128Z,50.80
2018-02-14T01:24:58.629Z,50.80
2018-02-14T01:26:01.120Z,50.90
2018-02-14T01:27:03.614Z,50.90
2018-02-14T01:28:06.130Z,51.00
2018-02-14T01:29:09.386Z,51.00
2018-02-14T01:30:11.873Z,51.00
2018-02-14T01:31:15.126Z,51.20
2018-02-14T01:32:17.634Z,51.10
2018-02-14T01:33:21.027Z,51.10
2018-02-14T01:34:23.517Z,51.10
2018-02-14T01:35:26.009Z,51.10
2018-02-14T01:36:28.502Z,51.10
2018-02-14T01:37:31.801Z,51.20
2018-02-14T01:38:35.073Z,51.20
2018-02-14T01:39:38.329Z,51.30
2018-02-14T01:40:40.825Z,51.30
2018-02-14T01:41:44.081Z,51.40
2018-02-14T01:42:46.574Z,51.40
2018-02-14T01:43:49.849Z,51.40
2018-02-14T01:44:53.105Z,51.20
2018-02-14T01:45:55.602Z,51.20
2018-02-14T01:46:58.854Z,51.10
2018-02-14T01:48:01.346Z,51.00
2018-02-14T01:49:04.622Z,51.10
2018-02-14T01:50:07.885Z,51.60
2018-02-14T01:51:10.373Z,51.10
2018-02-14T01:52:13.630Z,51.60
2018-02-14T01:53:16.134Z,51.10
2018-02-14T01:54:19.414Z,51.30
2018-02-14T01:55:22.698Z,51.30
2018-02-14T01:56:25.950Z,51.20
2018-02-14T01:57:28.437Z,51.70
2018-02-14T01:58:31.692Z,51.40
2018-02-14T01:59:34.213Z,51.40
2018-02-14T02:00:36.764Z,51.40
2018-02-14T02:01:40.046Z,51.30
2018-02-14T02:02:43.305Z,51.30
2018-02-14T02:03:45.794Z,51.30
2018-02-14T02:04:49.070Z,51.30
2018-02-14T02:05:52.324Z,51.30
2018-02-14T02:06:54.813Z,51.30
2018-02-14T02:07:58.070Z,51.30
2018-02-14T02:09:00.561Z,51.20
2018-02-14T02:10:03.846Z,51.40
2018-02-14T02:11:07.101Z,51.10
2018-02-14T02:12:09.589Z,51.10
2018-02-14T02:13:12.846Z,51.00
2018-02-14T02:14:15.342Z,51.00
2018-02-14T02:15:18.618Z,51.20
2018-02-14T02:16:21.878Z,51.60
2018-02-14T02:17:24.369Z,51.30
2018-02-14T02:18:27.625Z,51.50
2018-02-14T02:19:30.112Z,51.40
2018-02-14T02:20:34.566Z,51.50
2018-02-14T02:21:37.061Z,51.60
2018-02-14T02:22:39.554Z,51.70
2018-02-14T02:23:42.037Z,51.80
2018-02-14T02:24:45.290Z,51.90
2018-02-14T02:25:47.794Z,51.90
2018-02-14T02:26:50.295Z,52.10
2018-02-14T02:27:52.781Z,52.20
2018-02-14T02:28:55.288Z,52.30
2018-02-14T02:29:57.769Z,52.10
2018-02-14T02:31:00.298Z,52.50
2018-02-14T02:32:03.550Z,52.80
2018-02-14T02:33:06.033Z,52.70
2018-02-14T02:34:08.532Z,52.80
2018-02-14T02:35:11.029Z,53.10
2018-02-14T02:36:13.541Z,52.80
2018-02-14T02:37:16.802Z,52.90
2018-02-14T02:38:19.290Z,52.90
2018-02-14T02:39:34.488Z,52.90
2018-02-14T02:40:41.998Z,52.90
2018-02-14T02:41:44.515Z,53.00
2018-02-14T02:42:47.004Z,53.20
2018-02-14T02:43:49.498Z,53.40
2018-02-14T02:44:51.994Z,53.60
2018-02-14T02:45:55.246Z,53.80
2018-02-14T02:46:57.761Z,53.80
2018-02-14T02:48:00.250Z,53.70
2018-02-14T02:49:02.782Z,53.60
2018-02-14T02:50:06.062Z,53.60
2018-02-14T02:51:09.329Z,53.80
2018-02-14T02:52:11.918Z,53.70
2018-02-14T02:53:15.174Z,53.90
2018-02-14T02:54:17.666Z,53.90
2018-02-14T02:55:20.921Z,54.00
2018-02-14T02:56:23.406Z,54.00
2018-02-14T02:57:26.690Z,54.10
2018-02-14T02:58:29.950Z,54.10
2018-02-14T02:59:32.457Z,54.00
2018-02-14T03:00:34.956Z,54.00
2018-02-14T03:01:37.444Z,53.90
2018-02-14T03:02:39.953Z,53.90
2018-02-14T03:03:42.449Z,53.80
2018-02-14T03:04:44.944Z,53.80
2018-02-14T03:05:47.433Z,53.70
2018-02-14T03:06:50.693Z,53.70
2018-02-14T03:07:53.225Z,53.60
2018-02-14T03:08:56.256Z,53.60
2018-02-14T03:09:59.518Z,53.80
2018-02-14T03:11:02.041Z,53.80
2018-02-14T03:12:04.577Z,54.10
2018-02-14T03:13:07.830Z,54.40
2018-02-14T03:14:10.317Z,54.00
2018-02-14T03:15:13.573Z,54.60
2018-02-14T03:16:16.063Z,54.60
2018-02-14T03:17:19.326Z,55.00
2018-02-14T03:18:21.920Z,55.00
2018-02-14T03:19:24.446Z,55.20
2018-02-14T03:20:26.930Z,55.40
2018-02-14T03:21:29.413Z,55.70
2018-02-14T03:22:32.678Z,55.90
2018-02-14T03:23:35.193Z,55.90
2018-02-14T03:24:37.686Z,55.90
2018-02-14T03:25:40.183Z,55.90
2018-02-14T03:26:43.437Z,55.90
2018-02-14T03:27:45.927Z,55.90
2018-02-14T03:28:49.207Z,55.90
2018-02-14T03:29:52.467Z,55.90
2018-02-14T03:30:54.961Z,55.90
2018-02-14T03:31:58.225Z,55.50
2018-02-14T03:33:01.488Z,55.40
2018-02-14T03:34:03.998Z,55.40
2018-02-14T03:35:07.261Z,55.20
2018-02-14T03:36:09.750Z,55.20
2018-02-14T03:37:12.242Z,55.10
2018-02-14T03:38:14.743Z,55.10
2018-02-14T03:39:17.346Z,55.00
2018-02-14T03:40:20.605Z,55.00
2018-02-14T03:41:23.103Z,55.00
2018-02-14T03:42:25.595Z,55.30
2018-02-14T03:43:28.077Z,55.00
2018-02-14T03:44:30.590Z,55.00
2018-02-14T03:45:33.853Z,54.90
2018-02-14T03:46:36.341Z,54.90
2018-02-14T03:47:39.607Z,54.70
2018-02-14T03:48:42.857Z,54.80
2018-02-14T03:49:45.365Z,54.70
2018-02-14T03:50:48.621Z,54.80
2018-02-14T03:51:51.114Z,54.80
2018-02-14T03:52:54.374Z,54.70
2018-02-14T03:53:56.865Z,54.70
2018-02-14T03:55:00.160Z,54.70
2018-02-14T03:56:02.705Z,54.70
2018-02-14T03:57:05.961Z,55.10
2018-02-14T03:58:08.445Z,55.00
2018-02-14T03:59:11.702Z,55.60
2018-02-14T04:00:14.209Z,55.50
2018-02-14T04:01:16.712Z,55.70
2018-02-14T04:02:19.212Z,55.90
2018-02-14T04:03:21.706Z,56.10
2018-02-14T04:04:24.197Z,56.10
2018-02-14T04:05:26.705Z,56.20
2018-02-14T04:06:29.193Z,56.10
2018-02-14T04:07:32.477Z,56.00
2018-02-14T04:08:35.725Z,56.10
2018-02-14T04:09:38.278Z,56.00
2018-02-14T04:10:40.837Z,56.20
2018-02-14T04:11:43.295Z,56.20
2018-02-14T04:12:45.785Z,56.40
2018-02-14T04:13:48.277Z,56.40
2018-02-14T04:14:51.533Z,56.30
2018-02-14T04:15:54.052Z,56.30
2018-02-14T04:16:56.610Z,56.40
2018-02-14T04:17:59.101Z,56.40
2018-02-14T04:19:01.594Z,56.30
2018-02-14T04:20:04.105Z,56.40
2018-02-14T04:21:06.618Z,56.30
2018-02-14T04:22:09.109Z,56.20
2018-02-14T04:23:11.610Z,56.20
2018-02-14T04:24:14.110Z,56.00
2018-02-14T04:25:16.605Z,56.00
2018-02-14T04:26:19.121Z,56.10
2018-02-14T04:27:21.609Z,56.00
2018-02-14T04:28:24.098Z,55.80
2018-02-14T04:29:26.605Z,55.80
2018-02-14T04:30:29.096Z,55.80
2018-02-14T04:31:31.605Z,55.70
2018-02-14T04:32:34.861Z,55.90
2018-02-14T04:33:37.354Z,55.90
2018-02-14T04:34:40.605Z,56.00
2018-02-14T04:35:43.089Z,56.00
2018-02-14T04:36:45.618Z,56.00
2018-02-14T04:37:48.114Z,56.00
2018-02-14T04:38:50.600Z,56.00
2018-02-14T04:39:53.853Z,56.00
2018-02-14T04:40:56.454Z,55.90
2018-02-14T04:41:59.733Z,56.10
2018-02-14T04:43:03.017Z,56.30
2018-02-14T04:44:06.275Z,56.30
2018-02-14T04:45:08.770Z,56.30
2018-02-14T04:46:12.035Z,56.30
2018-02-14T04:47:14.541Z,56.20
2018-02-14T04:48:17.031Z,56.30
2018-02-14T04:49:19.522Z,56.30
2018-02-14T04:50:22.014Z,56.40
2018-02-14T04:51:25.296Z,56.60
2018-02-14T04:52:28.579Z,56.70
2018-02-14T04:53:31.842Z,56.80
2018-02-14T04:54:34.331Z,56.80
2018-02-14T04:55:37.581Z,56.80
2018-02-14T04:56:40.071Z,56.80
2018-02-14T04:57:43.359Z,56.70
2018-02-14T04:58:46.611Z,56.70
2018-02-14T04:59:49.103Z,56.70
2018-02-14T05:00:52.365Z,56.70
2018-02-14T05:01:54.961Z,56.70
2018-02-14T05:02:57.478Z,56.70
2018-02-14T05:03:59.969Z,56.70
2018-02-14T05:05:02.465Z,56.60
2018-02-14T05:06:04.961Z,56.50
2018-02-14T05:07:07.463Z,56.50
2018-02-14T05:08:10.741Z,56.40
2018-02-14T05:09:13.248Z,56.30
2018-02-14T05:10:15.742Z,56.20
2018-02-14T05:11:18.234Z,56.40
2018-02-14T05:12:20.733Z,56.40
2018-02-14T05:13:23.245Z,56.50
2018-02-14T05:14:25.734Z,56.40
2018-02-14T05:15:28.232Z,56.30
2018-02-14T05:16:30.779Z,56.20
2018-02-14T05:17:34.065Z,56.20
2018-02-14T05:18:37.341Z,56.10
2018-02-14T05:19:40.600Z,56.20
2018-02-14T05:20:43.085Z,56.10
2018-02-14T05:21:46.353Z,56.40
2018-02-14T05:22:48.841Z,56.40
2018-02-14T05:23:52.110Z,56.20
2018-02-14T05:24:54.698Z,56.30
2018-02-14T05:25:57.982Z,56.50
2018-02-14T05:27:00.486Z,56.50
2018-02-14T05:28:02.970Z,56.60
2018-02-14T05:29:05.494Z,56.60
2018-02-14T05:30:07.986Z,56.70
2018-02-14T05:31:10.473Z,56.70
2018-02-14T05:32:12.958Z,56.70
2018-02-14T05:33:16.217Z,56.80
2018-02-14T05:34:18.734Z,56.80
2018-02-14T05:35:21.234Z,56.90
2018-02-14T05:36:23.727Z,56.90
2018-02-14T05:37:26.978Z,56.90
2018-02-14T05:38:29.506Z,56.90
2018-02-14T05:39:32.025Z,56.80
2018-02-14T05:40:34.522Z,56.90
2018-02-14T05:41:37.792Z,57.20
2018-02-14T05:42:41.066Z,57.40
2018-02-14T05:43:43.562Z,57.40
2018-02-14T05:44:46.086Z,58.00
2018-02-14T05:45:48.582Z,57.50
2018-02-14T05:46:51.837Z,57.50
2018-02-14T05:47:54.329Z,57.50
2018-02-14T05:48:57.594Z,57.50
2018-02-14T05:50:00.118Z,57.50
2018-02-14T05:51:02.612Z,57.60
2018-02-14T05:52:05.106Z,57.70
2018-02-14T05:53:08.405Z,57.90
2018-02-14T05:54:10.917Z,57.90
2018-02-14T05:55:13.436Z,57.90
2018-02-14T05:56:15.929Z,58.00
2018-02-14T05:57:18.418Z,58.10
2018-02-14T05:58:20.914Z,58.00
2018-02-14T05:59:24.181Z,58.20
2018-02-14T06:00:26.743Z,58.10
2018-02-14T06:01:29.221Z,58.20
2018-02-14T06:02:31.718Z,58.20
2018-02-14T06:03:34.221Z,58.30
2018-02-14T06:04:36.715Z,58.30
2018-02-14T06:05:40.005Z,58.20
2018-02-14T06:06:43.261Z,58.20
2018-02-14T06:07:45.751Z,58.20
2018-02-14T06:08:49.026Z,58.10
2018-02-14T06:09:51.526Z,58.10
2018-02-14T06:10:54.052Z,58.10
2018-02-14T06:11:57.327Z,58.30
2018-02-14T06:12:59.826Z,58.00
2018-02-14T06:14:03.100Z,58.40
2018-02-14T06:15:06.362Z,58.60
2018-02-14T06:16:08.881Z,58.50
2018-02-14T06:17:11.383Z,58.60
2018-02-14T06:18:13.886Z,59.00
2018-02-14T06:19:17.150Z,59.10
2018-02-14T06:20:19.641Z,59.10
2018-02-14T06:21:22.200Z,59.20
2018-02-14T06:22:25.461Z,59.20
2018-02-14T06:23:27.973Z,59.10
2018-02-14T06:24:30.475Z,59.00
2018-02-14T06:25:32.978Z,58.70
2018-02-14T06:26:36.267Z,58.40
2018-02-14T06:27:39.527Z,58.40
2018-02-14T06:28:42.014Z,58.40
2018-02-14T06:29:45.308Z,57.80
2018-02-14T06:30:47.806Z,57.80
2018-02-14T06:31:50.346Z,57.60
2018-02-14T06:32:52.849Z,57.50
2018-02-14T06:33:55.355Z,57.40
2018-02-14T06:34:57.858Z,57.30
2018-02-14T06:36:00.365Z,57.20
2018-02-14T06:37:02.890Z,57.20
2018-02-14T06:38:05.440Z,57.20
2018-02-14T06:39:07.945Z,56.70
2018-02-14T06:40:10.442Z,56.80
2018-02-14T06:41:13.713Z,56.90
2018-02-14T06:42:16.229Z,56.80
2018-02-14T06:43:18.728Z,57.00
2018-02-14T06:44:21.221Z,57.10
2018-02-14T06:45:24.518Z,57.30
2018-02-14T06:46:27.018Z,57.30
2018-02-14T06:47:29.541Z,57.10
2018-02-14T06:48:32.814Z,56.80
2018-02-14T06:49:36.095Z,56.60
2018-02-14T06:50:39.365Z,56.70
2018-02-14T06:51:41.870Z,56.70
2018-02-14T06:52:44.381Z,56.80
2018-02-14T06:53:46.906Z,56.90
2018-02-14T06:54:49.410Z,57.10
2018-02-14T06:55:51.927Z,57.30
2018-02-14T06:56:54.451Z,57.30
2018-02-14T06:57:56.978Z,57.30
2018-02-14T06:58:59.487Z,57.20
2018-02-14T07:00:02.777Z,56.90
2018-02-14T07:01:05.269Z,56.90
2018-02-14T07:02:07.765Z,56.70
2018-02-14T07:03:10.299Z,56.60
2018-02-14T07:04:12.791Z,56.60
2018-02-14T07:05:15.297Z,56.70
2018-02-14T07:06:17.802Z,56.90
2018-02-14T07:07:20.297Z,57.20
2018-02-14T07:08:22.846Z,57.50
2018-02-14T07:09:25.408Z,57.50
2018-02-14T07:10:27.909Z,57.90
2018-02-14T07:11:30.404Z,57.50
2018-02-14T07:12:33.683Z,57.30
2018-02-14T07:13:36.973Z,57.10
2018-02-14T07:14:40.265Z,57.20
2018-02-14T07:15:43.530Z,57.30
2018-02-14T07:16:46.024Z,57.20
2018-02-14T07:17:48.543Z,57.30
2018-02-14T07:18:51.071Z,57.30
2018-02-14T07:20:00.899Z,57.40
2018-02-14T07:21:03.406Z,57.30
2018-02-14T07:22:05.918Z,57.30
2018-02-14T07:23:08.418Z,57.30
2018-02-14T07:24:10.940Z,57.30
2018-02-14T07:25:14.206Z,57.40
2018-02-14T07:26:16.715Z,57.80
2018-02-14T07:27:19.268Z,57.70
2018-02-14T07:28:21.770Z,57.90
2018-02-14T07:29:24.287Z,58.30
2018-02-14T07:30:27.553Z,58.60
2018-02-14T07:31:30.056Z,58.60
2018-02-14T07:32:32.609Z,58.80
2018-02-14T07:33:35.133Z,58.90
2018-02-14T07:34:37.651Z,59.10
2018-02-14T07:35:40.147Z,59.30
2018-02-14T07:36:42.637Z,59.70
2018-02-14T07:37:45.142Z,59.80
2018-02-14T07:38:47.709Z,59.90
2018-02-14T07:39:50.993Z,59.80
2018-02-14T07:40:53.524Z,59.80
2018-02-14T07:41:56.026Z,59.60
2018-02-14T07:42:58.546Z,59.10
2018-02-14T07:44:01.846Z,59.50
2018-02-14T07:45:05.138Z,59.40
2018-02-14T07:46:08.442Z,59.30
2018-02-14T07:47:10.945Z,59.20
2018-02-14T07:48:13.454Z,59.00
2018-02-14T07:49:16.731Z,58.60
2018-02-14T07:50:20.040Z,58.60
2018-02-14T07:51:22.596Z,58.60
2018-02-14T07:52:25.099Z,58.50
2018-02-14T07:53:27.609Z,58.10
2018-02-14T07:54:30.872Z,57.50
2018-02-14T07:55:33.398Z,57.50
2018-02-14T07:56:35.897Z,57.00
2018-02-14T07:57:39.072Z,56.80
2018-02-14T07:58:41.579Z,56.50
2018-02-14T07:59:44.846Z,56.60
2018-02-14T08:00:47.399Z,56.60
2018-02-14T08:01:49.909Z,56.60
2018-02-14T08:02:52.453Z,56.80
2018-02-14T08:03:55.747Z,56.50
2018-02-14T08:04:59.007Z,56.50
2018-02-14T08:06:01.536Z,56.50
2018-02-14T08:07:04.039Z,56.90
2018-02-14T08:08:06.550Z,56.70
2018-02-14T08:09:09.091Z,56.60
2018-02-14T08:10:11.571Z,56.50
2018-02-14T08:11:14.097Z,56.50
2018-02-14T08:12:16.589Z,56.40
2018-02-14T08:13:19.850Z,56.20
2018-02-14T08:14:23.119Z,56.20
2018-02-14T08:15:25.626Z,56.20
2018-02-14T08:16:28.170Z,56.40
2018-02-14T08:17:31.438Z,56.20
2018-02-14T08:18:33.940Z,56.10
2018-02-14T08:19:36.526Z,55.90
2018-02-14T08:20:39.032Z,55.80
2018-02-14T08:21:41.550Z,55.80
2018-02-14T08:22:44.053Z,55.80
2018-02-14T08:23:46.564Z,56.00
2018-02-14T08:24:49.074Z,56.10
2018-02-14T08:25:51.606Z,56.00
2018-02-14T08:26:54.133Z,56.10
2018-02-14T08:27:56.673Z,56.10
2018-02-14T08:28:59.174Z,56.70
2018-02-14T08:30:02.453Z,56.30
2018-02-14T08:31:04.970Z,56.30
2018-02-14T08:32:07.497Z,56.30
2018-02-14T08:33:10.765Z,56.50
2018-02-14T08:34:14.050Z,56.80
2018-02-14T08:35:16.567Z,56.30
2018-02-14T08:36:19.067Z,56.20
2018-02-14T08:37:21.593Z,56.10
2018-02-14T08:38:24.085Z,55.90
2018-02-14T08:39:26.582Z,55.80
2018-02-14T08:40:29.837Z,55.00
2018-02-14T08:41:32.335Z,55.00
2018-02-14T08:42:35.639Z,54.50
2018-02-14T08:43:38.138Z,54.50
2018-02-14T08:44:40.642Z,54.40
2018-02-14T08:45:43.930Z,54.10
2018-02-14T08:46:47.213Z,54.10
2018-02-14T08:47:50.501Z,54.00
2018-02-14T08:48:53.785Z,53.90
2018-02-14T08:49:57.061Z,53.80
2018-02-14T08:51:00.322Z,53.80
2018-02-14T08:52:02.874Z,53.70
2018-02-14T08:53:05.410Z,53.50
2018-02-14T08:54:07.914Z,53.40
2018-02-14T08:55:10.409Z,53.30
2018-02-14T08:56:13.665Z,53.30
2018-02-14T08:57:16.166Z,53.40
2018-02-14T08:58:18.691Z,53.40
2018-02-14T08:59:21.192Z,53.30
2018-02-14T09:00:24.450Z,52.90
2018-02-14T09:01:26.966Z,52.80
2018-02-14T09:02:29.459Z,52.70
2018-02-14T09:03:31.973Z,52.70
2018-02-14T09:04:35.267Z,52.50
2018-02-14T09:05:37.767Z,52.50
2018-02-14T09:06:40.258Z,52.50
2018-02-14T09:07:42.762Z,52.50
2018-02-14T09:08:45.278Z,52.50
2018-02-14T09:09:47.770Z,52.50
2018-02-14T09:10:51.070Z,53.00
2018-02-14T09:11:54.363Z,53.30
2018-02-14T09:12:56.874Z,53.30
2018-02-14T09:13:59.397Z,53.30
2018-02-14T09:15:01.903Z,53.20
2018-02-14T09:16:04.417Z,52.70
2018-02-14T09:17:07.747Z,51.80
2018-02-14T09:18:10.241Z,51.80
2018-02-14T09:19:12.776Z,51.70
2018-02-14T09:20:15.302Z,51.80
2018-02-14T09:21:17.801Z,51.70
2018-02-14T09:22:22.156Z,51.60
2018-02-14T09:23:25.437Z,51.50
2018-02-14T09:24:28.735Z,51.50
2018-02-14T09:25:31.240Z,51.50
2018-02-14T09:26:33.738Z,52.20
2018-02-14T09:27:36.246Z,51.80
2018-02-14T09:28:38.746Z,51.80
2018-02-14T09:29:41.262Z,51.70
2018-02-14T09:30:43.762Z,51.50
2018-02-14T09:31:46.253Z,51.50
2018-02-14T09:32:48.794Z,51.40
2018-02-14T09:33:51.315Z,51.30
2018-02-14T09:34:54.786Z,50.70
2018-02-14T09:35:57.289Z,50.70
2018-02-14T09:36:59.801Z,50.60
2018-02-14T09:38:03.074Z,50.30
2018-02-14T09:39:05.573Z,50.30
2018-02-14T09:40:08.868Z,50.00
2018-02-14T09:41:12.140Z,50.00
2018-02-14T09:42:15.401Z,50.20
2018-02-14T09:43:17.901Z,50.20
2018-02-14T09:44:21.166Z,50.50
2018-02-14T09:45:24.458Z,50.80
2018-02-14T09:46:27.728Z,50.70
2018-02-14T09:47:30.222Z,50.60
2018-02-14T09:48:32.730Z,51.10
2018-02-14T09:49:35.246Z,50.80
2018-02-14T09:50:38.529Z,50.80
2018-02-14T09:51:42.385Z,50.70
2018-02-14T09:52:44.890Z,50.70
2018-02-14T09:53:48.153Z,50.60
2018-02-14T09:54:50.673Z,50.50
2018-02-14T09:55:53.198Z,50.60
2018-02-14T09:56:56.457Z,50.90
2018-02-14T09:57:58.955Z,50.80
2018-02-14T09:59:02.234Z,50.60
2018-02-14T10:00:05.513Z,50.50
2018-02-14T10:01:08.050Z,50.40
2018-02-14T10:02:10.574Z,50.20
2018-02-14T10:03:13.082Z,50.10
2018-02-14T10:04:15.620Z,49.80
2018-02-14T10:05:18.115Z,49.70
2018-02-14T10:06:20.718Z,49.70
2018-02-14T10:07:24.058Z,48.90
2018-02-14T10:08:26.549Z,48.90
2018-02-14T10:09:29.050Z,48.50
2018-02-14T10:10:31.570Z,48.20
2018-02-14T10:11:34.119Z,48.00
2018-02-14T10:12:36.614Z,47.70
2018-02-14T10:13:39.866Z,47.40
2018-02-14T10:14:42.362Z,47.40
2018-02-14T10:15:45.621Z,46.70
2018-02-14T10:16:48.151Z,46.60
2018-02-14T10:17:50.708Z,46.60
2018-02-14T10:18:53.225Z,47.20
2018-02-14T10:19:55.726Z,46.90
2018-02-14T10:20:58.226Z,46.70
2018-02-14T10:22:00.743Z,46.80
2018-02-14T10:23:04.063Z,46.90
2018-02-14T10:24:06.566Z,46.90
2018-02-14T10:25:09.070Z,46.90
2018-02-14T10:26:11.560Z,46.80
2018-02-14T10:27:14.087Z,46.80
2018-02-14T10:28:17.347Z,46.40
2018-02-14T10:29:19.857Z,46.30
2018-02-14T10:30:22.438Z,46.20
2018-02-14T10:31:24.937Z,46.30
2018-02-14T10:32:27.458Z,46.80
2018-02-14T10:33:29.957Z,46.40
2018-02-14T10:34:32.458Z,46.30
2018-02-14T10:35:35.730Z,46.40
2018-02-14T10:36:38.238Z,46.30
2018-02-14T10:37:40.758Z,46.10
2018-02-14T10:38:43.269Z,46.20
2018-02-14T10:39:45.775Z,46.20
2018-02-14T10:40:48.281Z,46.30
2018-02-14T10:41:51.549Z,46.40
2018-02-14T10:42:54.846Z,45.90
2018-02-14T10:43:58.105Z,45.80
2018-02-14T10:45:00.609Z,45.80
2018-02-14T10:46:03.106Z,45.50
2018-02-14T10:47:05.605Z,45.60
2018-02-14T10:48:08.115Z,45.60
2018-02-14T10:49:10.635Z,45.50
2018-02-14T10:50:13.134Z,45.50
2018-02-14T10:51:15.638Z,45.60
2018-02-14T10:52:18.138Z,45.70
2018-02-14T10:53:20.720Z,45.70
2018-02-14T10:54:23.225Z,45.70
2018-02-14T10:55:25.722Z,45.80
2018-02-14T10:56:28.227Z,45.90
2018-02-14T10:57:30.721Z,45.70
2018-02-14T10:58:33.259Z,45.80
2018-02-14T10:59:35.758Z,45.30
2018-02-14T11:00:43.973Z,45.00
2018-02-14T11:01:52.282Z,44.90
2018-02-14T11:03:00.588Z,44.90
2018-02-14T11:05:48.949Z,44.70
2018-02-14T11:06:52.224Z,44.80
2018-02-14T11:07:54.790Z,44.70
2018-02-14T11:08:58.064Z,44.40
2018-02-14T11:10:00.590Z,44.40
2018-02-14T11:11:03.099Z,44.50
2018-02-14T11:12:05.600Z,44.40
2018-02-14T11:13:08.101Z,44.60
2018-02-14T11:14:10.604Z,44.30
2018-02-14T11:15:13.878Z,44.30
2018-02-14T11:16:16.399Z,44.30
2018-02-14T11:17:19.026Z,44.30
2018-02-14T11:18:22.294Z,43.90
2018-02-14T11:19:24.797Z,43.80
2018-02-14T11:20:27.330Z,43.80
2018-02-14T11:21:30.594Z,44.00
2018-02-14T11:22:33.109Z,43.70
2018-02-14T11:23:35.621Z,43.50
2018-02-14T11:24:38.144Z,43.50
2018-02-14T11:25:40.697Z,43.60
2018-02-14T11:26:43.201Z,43.60
2018-02-14T11:27:45.722Z,43.50
2018-02-14T11:28:49.010Z,43.40
2018-02-14T11:29:51.534Z,43.30
2018-02-14T11:30:54.110Z,43.10
2018-02-14T11:31:56.610Z,43.00
2018-02-14T11:32:59.110Z,43.40
2018-02-14T11:34:01.638Z,42.70
2018-02-14T11:35:04.136Z,42.40
2018-02-14T11:36:06.676Z,42.10
2018-02-14T11:37:09.197Z,42.10
2018-02-14T11:38:11.695Z,42.20
2018-02-14T11:39:14.986Z,42.10
2018-02-14T11:40:18.265Z,42.10
2018-02-14T11:41:20.807Z,42.00
2018-02-14T11:42:23.310Z,42.10
2018-02-14T11:43:25.913Z,42.10
2018-02-14T11:44:28.413Z,42.00
2018-02-14T11:45:31.670Z,41.60
2018-02-14T11:46:34.193Z,41.60
2018-02-14T11:47:36.694Z,41.30
2018-02-14T11:48:39.193Z,41.30
2018-02-14T11:49:42.467Z,41.30
2018-02-14T11:50:44.962Z,41.30
2018-02-14T11:51:48.295Z,41.30
2018-02-14T11:52:50.790Z,41.20
2018-02-14T11:53:54.058Z,41.20
2018-02-14T11:54:56.557Z,41.10
2018-02-14T11:55:59.236Z,41.00
2018-02-14T11:57:01.757Z,41.00
2018-02-14T11:58:04.250Z,40.90
2018-02-14T11:59:07.530Z,40.70
2018-02-14T12:00:10.805Z,40.70
2018-02-14T12:01:14.058Z,40.90
2018-02-14T12:02:17.598Z,40.80
2018-02-14T12:03:20.159Z,40.90
2018-02-14T12:04:22.661Z,41.00
2018-02-14T12:05:25.155Z,41.10
2018-02-14T12:06:27.650Z,41.30
2018-02-14T12:07:31.177Z,41.00
2018-02-14T12:08:33.670Z,41.00
2018-02-14T12:09:36.165Z,40.70
2018-02-14T12:10:39.442Z,40.70
2018-02-14T12:11:42.711Z,40.40
2018-02-14T12:12:45.521Z,40.40
2018-02-14T12:13:48.023Z,40.50
2018-02-14T12:14:50.521Z,40.40
2018-02-14T12:15:53.045Z,40.40
2018-02-14T12:16:55.541Z,40.50
2018-02-14T12:17:58.454Z,40.70
2018-02-14T12:19:00.954Z,40.70
2018-02-14T12:20:03.458Z,40.50
2018-02-14T12:21:06.719Z,40.60
2018-02-14T12:22:09.219Z,40.30
2018-02-14T12:23:12.711Z,40.60
2018-02-14T12:24:15.976Z,40.70
2018-02-14T12:25:19.237Z,40.50
2018-02-14T12:26:21.746Z,40.50
2018-02-14T12:27:24.254Z,40.30
2018-02-14T12:28:26.773Z,40.10
2018-02-14T12:29:29.270Z,40.10
2018-02-14T12:30:31.789Z,40.10
2018-02-14T12:31:35.052Z,39.90
2018-02-14T12:32:37.554Z,39.90
2018-02-14T12:33:40.128Z,39.80
2018-02-14T12:34:42.640Z,39.80
2018-02-14T12:35:45.122Z,39.80
2018-02-14T12:36:47.625Z,39.80
2018-02-14T12:37:50.145Z,39.90
2018-02-14T12:38:52.686Z,39.70
2018-02-14T12:39:55.176Z,39.40
2018-02-14T12:40:57.677Z,39.30
2018-02-14T12:42:00.191Z,39.20
2018-02-14T12:43:02.698Z,39.10
2018-02-14T12:44:05.996Z,39.00
2018-02-14T12:45:08.486Z,39.00
2018-02-14T12:46:11.005Z,39.10
2018-02-14T12:47:14.266Z,39.30
2018-02-14T12:48:16.770Z,39.20
2018-02-14T12:49:20.087Z,39.00
2018-02-14T12:50:23.325Z,39.00
2018-02-14T12:51:26.604Z,38.90
2018-02-14T12:52:29.862Z,38.60
2018-02-14T12:53:32.366Z,38.60
2018-02-14T12:54:34.887Z,38.60
2018-02-14T12:55:37.381Z,38.70
2018-02-14T12:56:40.650Z,38.80
2018-02-14T12:57:43.170Z,38.70
2018-02-14T12:58:45.667Z,39.00
2018-02-14T12:59:48.197Z,38.70
2018-02-14T13:00:50.698Z,38.50
2018-02-14T13:01:53.225Z,38.40
2018-02-14T13:02:55.738Z,38.30
2018-02-14T13:03:59.745Z,38.40
2018-02-14T13:05:02.286Z,38.40
2018-02-14T13:06:04.786Z,38.50
2018-02-14T13:07:08.171Z,38.40
2018-02-14T13:08:11.442Z,38.80
2018-02-14T13:09:13.949Z,38.30
2018-02-14T13:10:16.508Z,38.20
2018-02-14T13:11:19.014Z,38.30
2018-02-14T13:12:21.554Z,38.10
2018-02-14T13:13:24.063Z,37.70
2018-02-14T13:14:26.567Z,37.30
2018-02-14T13:15:29.066Z,37.10
2018-02-14T13:16:31.565Z,37.20
2018-02-14T13:17:34.080Z,37.30
2018-02-14T13:18:36.575Z,37.50
2018-02-14T13:19:39.078Z,37.50
2018-02-14T13:20:42.348Z,37.60
2018-02-14T13:21:44.852Z,37.60
2018-02-14T13:22:47.389Z,38.10
2018-02-14T13:23:50.651Z,37.90
2018-02-14T13:24:53.143Z,37.90
2018-02-14T13:25:56.401Z,37.70
2018-02-14T13:26:58.898Z,37.70
2018-02-14T13:28:02.425Z,36.30
2018-02-14T13:29:05.318Z,36.30
2018-02-14T13:30:07.821Z,36.30